createdAt,value
2019-02-16T00:01:01.582Z,75.12
2019-02-16T00:03:32.679Z,76.62
2019-02-16T00:06:02.995Z,77.47
2019-02-16T00:08:33.323Z,78.05
2019-02-16T00:11:03.686Z,76.92
2019-02-16T00:13:34.083Z,77.80
2019-02-16T00:16:05.070Z,78.05
2019-02-16T00:18:35.419Z,81.87
2019-02-16T00:21:05.692Z,82.75
2019-02-16T00:23:36.171Z,80.67
2019-02-16T00:26:06.474Z,83.30
2019-02-16T00:28:36.804Z,83.82
2019-02-16T00:31:07.125Z,81.55
2019-02-16T00:33:37.459Z,81.25
2019-02-16T00:36:07.676Z,80.72
2019-02-16T00:38:38.013Z,79.58
2019-02-16T00:41:08.293Z,82.72
2019-02-16T00:43:38.561Z,82.37
2019-02-16T00:46:08.635Z,82.75
2019-02-16T00:48:38.901Z,84.25
2019-02-16T00:51:13.696Z,84.60
2019-02-16T00:53:41.024Z,86.82
2019-02-16T00:56:11.143Z,84.37
2019-02-16T00:58:41.368Z,82.47
2019-02-16T01:01:11.573Z,83.70
2019-02-16T01:03:42.054Z,83.78
2019-02-16T01:06:12.651Z,83.87
2019-02-16T01:08:42.935Z,84.05
2019-02-16T01:11:13.142Z,84.05
2019-02-16T01:13:43.487Z,86.00
2019-02-16T01:16:13.792Z,82.45
2019-02-16T01:18:43.982Z,84.42
2019-02-16T01:21:22.588Z,87.25
2019-02-16T01:23:46.169Z,83.72
2019-02-16T01:26:16.443Z,84.50
2019-02-16T01:28:46.635Z,82.50
2019-02-16T01:31:16.916Z,81.20
2019-02-16T01:33:47.135Z,83.85
2019-02-16T01:36:17.548Z,79.62
2019-02-16T01:38:47.233Z,74.25
2019-02-16T01:41:17.686Z,78.75
2019-02-16T01:43:48.506Z,84.35
2019-02-16T01:46:18.839Z,79.62
2019-02-16T01:48:49.030Z,81.30
2019-02-16T01:51:19.298Z,78.50
2019-02-16T01:53:49.438Z,81.25
2019-02-16T01:56:19.693Z,78.67
2019-02-16T01:58:49.893Z,78.30
2019-02-16T02:01:20.665Z,82.27
2019-02-16T02:03:50.918Z,81.30
2019-02-16T02:06:22.193Z,80.22
2019-02-16T02:08:52.491Z,82.65
2019-02-16T02:11:22.691Z,84.07
2019-02-16T02:13:53.032Z,86.53
2019-02-16T02:16:23.154Z,85.62
2019-02-16T02:18:53.455Z,82.40
2019-02-16T02:21:23.795Z,73.87
2019-02-16T02:23:55.498Z,81.60
2019-02-16T02:26:25.692Z,81.57
2019-02-16T02:28:55.835Z,83.37
2019-02-16T02:31:26.048Z,81.30
2019-02-16T02:33:56.211Z,80.38
2019-02-16T02:36:26.677Z,78.83
2019-02-16T02:38:56.951Z,76.37
2019-02-16T02:41:27.276Z,75.45
2019-02-16T02:43:57.440Z,76.77
2019-02-16T02:46:27.665Z,75.78
2019-02-16T02:48:57.878Z,75.12
2019-02-16T02:51:28.147Z,72.87
2019-02-16T02:53:58.397Z,70.70
2019-02-16T02:56:28.637Z,73.65
2019-02-16T02:58:58.963Z,71.55
2019-02-16T03:01:29.232Z,73.40
2019-02-16T03:03:59.653Z,72.15
2019-02-16T03:06:30.820Z,69.30
2019-02-16T03:09:01.113Z,69.15
2019-02-16T03:11:31.738Z,70.87
2019-02-16T03:14:01.964Z,70.22
2019-02-16T03:16:32.204Z,71.77
2019-02-16T03:19:02.375Z,68.75
2019-02-16T03:21:32.606Z,68.57
2019-02-16T03:24:02.205Z,67.00
2019-02-16T03:26:35.449Z,64.82
2019-02-16T03:29:08.733Z,67.70
2019-02-16T03:32:06.038Z,68.05
2019-02-16T03:34:44.956Z,67.22
2019-02-16T03:37:21.127Z,68.30
2019-02-16T03:39:51.364Z,66.28
2019-02-16T03:42:21.559Z,66.60
2019-02-16T03:44:51.979Z,67.92
2019-02-16T03:47:22.211Z,70.55
2019-02-16T03:49:52.349Z,68.20
2019-02-16T03:52:22.550Z,67.53
2019-02-16T03:54:52.176Z,68.40
2019-02-16T03:57:22.428Z,71.28
2019-02-16T03:59:52.728Z,69.17
2019-02-16T04:02:22.974Z,72.30
2019-02-16T04:04:53.362Z,71.40
2019-02-16T04:07:24.508Z,74.15
2019-02-16T04:09:54.764Z,75.78
2019-02-16T04:12:24.912Z,77.00
2019-02-16T04:14:55.194Z,78.12
2019-02-16T04:17:25.406Z,76.62
2019-02-16T04:19:55.636Z,75.28
2019-02-16T04:22:25.780Z,78.78
2019-02-16T04:24:55.959Z,80.30
2019-02-16T04:27:26.183Z,79.10
2019-02-16T04:29:56.415Z,78.02
2019-02-16T04:32:26.625Z,78.02
2019-02-16T04:34:56.704Z,78.85
2019-02-16T04:37:26.964Z,82.00
2019-02-16T04:39:57.178Z,78.33
2019-02-16T04:42:27.394Z,81.82
2019-02-16T04:44:57.557Z,83.05
2019-02-16T04:47:27.179Z,81.23
2019-02-16T04:49:57.511Z,82.88
2019-02-16T04:52:34.349Z,82.42
2019-02-16T04:54:59.683Z,81.78
2019-02-16T04:57:29.964Z,83.78
2019-02-16T05:00:00.451Z,84.45
2019-02-16T05:02:30.798Z,81.72
2019-02-16T05:05:01.006Z,81.45
2019-02-16T05:07:32.235Z,79.80
2019-02-16T05:10:01.892Z,80.20
2019-02-16T05:12:32.154Z,82.10
2019-02-16T05:15:02.318Z,79.00
2019-02-16T05:17:32.710Z,81.45
2019-02-16T05:20:02.338Z,78.57
2019-02-16T05:22:32.575Z,79.05
2019-02-16T05:25:02.248Z,80.23
2019-02-16T05:27:32.577Z,80.42
2019-02-16T05:30:02.876Z,78.72
2019-02-16T05:32:33.085Z,78.75
2019-02-16T05:35:03.757Z,77.20
2019-02-16T05:37:34.230Z,77.72
2019-02-16T05:40:04.608Z,76.83
2019-02-16T05:42:34.896Z,77.90
2019-02-16T05:45:05.670Z,78.13
2019-02-16T05:47:35.461Z,76.77
2019-02-16T05:50:06.355Z,76.60
2019-02-16T05:52:35.935Z,76.80
2019-02-16T05:55:06.662Z,78.95
2019-02-16T05:57:36.925Z,76.62
2019-02-16T06:00:10.280Z,77.40
2019-02-16T06:02:39.923Z,74.80
2019-02-16T06:05:10.142Z,71.60
2019-02-16T06:07:41.317Z,68.47
2019-02-16T06:10:11.274Z,69.67
2019-02-16T06:12:41.824Z,63.98
2019-02-16T06:15:12.197Z,64.10
2019-02-16T06:17:42.425Z,64.03
2019-02-16T06:20:12.751Z,61.65
2019-02-16T06:22:42.890Z,62.45
2019-02-16T06:25:13.139Z,63.15
2019-02-16T06:27:43.363Z,64.67
2019-02-16T06:30:13.566Z,64.27
2019-02-16T06:32:43.699Z,60.08
2019-02-16T06:35:18.478Z,64.30
2019-02-16T06:37:48.183Z,64.42
2019-02-16T06:40:18.424Z,63.75
2019-02-16T06:42:48.619Z,61.98
2019-02-16T06:45:18.913Z,60.17
2019-02-16T06:47:48.791Z,59.27
2019-02-16T06:50:19.348Z,58.38
2019-02-16T06:52:49.705Z,48.42
2019-02-16T06:55:19.871Z,51.92
2019-02-16T06:57:51.073Z,52.13
2019-02-16T07:00:23.069Z,50.73
2019-02-16T07:02:53.202Z,52.53
2019-02-16T07:05:23.486Z,49.40
2019-02-16T07:07:54.653Z,56.30
2019-02-16T07:10:24.986Z,55.92
2019-02-16T07:12:55.293Z,41.25
2019-02-16T07:15:25.598Z,54.33
2019-02-16T07:17:57.615Z,58.45
2019-02-16T07:20:27.907Z,55.25
2019-02-16T07:22:58.158Z,52.70
2019-02-16T07:25:28.565Z,56.83
2019-02-16T07:27:58.815Z,50.38
2019-02-16T07:30:29.111Z,55.17
2019-02-16T07:32:59.322Z,58.13
2019-02-16T07:35:29.705Z,58.33
2019-02-16T07:37:59.943Z,59.67
2019-02-16T07:40:30.197Z,58.55
2019-02-16T07:43:00.425Z,59.23
2019-02-16T07:45:32.341Z,57.65
2019-02-16T07:48:13.118Z,57.27
2019-02-16T07:50:47.910Z,54.95
2019-02-16T07:53:31.408Z,58.10
2019-02-16T07:56:05.476Z,55.67
2019-02-16T07:58:46.243Z,55.30
2019-02-16T08:01:28.821Z,52.53
2019-02-16T08:04:03.543Z,53.55
2019-02-16T08:06:47.506Z,50.80
2019-02-16T08:09:26.479Z,47.62
2019-02-16T08:11:58.305Z,50.73
2019-02-16T08:14:30.195Z,48.48
2019-02-16T08:17:05.171Z,49.05
2019-02-16T08:19:39.698Z,51.45
2019-02-16T08:22:20.764Z,48.55
2019-02-16T08:25:01.536Z,48.87
2019-02-16T08:27:49.633Z,45.78
2019-02-16T08:30:21.427Z,44.60
2019-02-16T08:33:11.058Z,44.80
2019-02-16T08:35:58.968Z,47.20
2019-02-16T08:38:33.626Z,48.00
2019-02-16T08:41:11.555Z,43.85
2019-02-16T08:43:49.328Z,43.78
2019-02-16T08:46:21.229Z,40.20
2019-02-16T08:48:55.859Z,38.80
2019-02-16T08:51:39.574Z,35.73
2019-02-16T08:54:17.375Z,37.93
2019-02-16T08:56:55.170Z,32.53
2019-02-16T08:59:43.302Z,27.10
2019-02-16T09:02:18.039Z,22.77
2019-02-16T09:04:55.552Z,24.60
2019-02-16T09:07:27.396Z,24.60
2019-02-16T09:10:12.169Z,19.80
2019-02-16T09:12:44.027Z,25.35
2019-02-16T09:15:18.938Z,23.35
2019-02-16T09:17:50.954Z,20.27
2019-02-16T09:20:25.808Z,21.37
2019-02-16T09:23:03.668Z,20.62
2019-02-16T09:25:47.488Z,19.85
2019-02-16T09:28:22.522Z,21.57
2019-02-16T09:31:03.272Z,22.77
2019-02-16T09:33:38.176Z,20.05
2019-02-16T09:36:10.142Z,19.48
2019-02-16T09:38:42.032Z,19.90
2019-02-16T09:41:19.989Z,20.00
2019-02-16T09:44:07.125Z,18.23
2019-02-16T09:46:57.195Z,18.00
2019-02-16T09:49:32.040Z,17.75
2019-02-16T09:52:21.795Z,18.17
2019-02-16T09:54:56.431Z,17.25
2019-02-16T09:57:28.356Z,17.10
2019-02-16T10:00:05.919Z,18.35
2019-02-16T10:02:37.902Z,18.02
2019-02-16T10:05:12.379Z,16.17
2019-02-16T10:08:00.718Z,17.92
2019-02-16T10:10:33.398Z,15.95
2019-02-16T10:13:17.038Z,17.15
2019-02-16T10:15:55.011Z,17.00
2019-02-16T10:18:32.714Z,16.55
2019-02-16T10:21:04.580Z,16.77
2019-02-16T10:23:36.333Z,17.00
2019-02-16T10:26:20.039Z,16.20
2019-02-16T10:29:04.008Z,17.50
2019-02-16T10:31:38.983Z,17.98
2019-02-16T10:34:27.291Z,16.85
2019-02-16T10:37:04.698Z,17.65
2019-02-16T10:39:45.626Z,15.58
2019-02-16T10:42:34.030Z,17.12
2019-02-16T10:45:10.028Z,17.37
2019-02-16T10:47:54.115Z,16.80
2019-02-16T10:50:35.208Z,16.73
2019-02-16T10:53:10.043Z,16.93
2019-02-16T10:55:50.480Z,17.67
2019-02-16T10:58:38.817Z,18.67
2019-02-16T11:01:10.831Z,17.23
2019-02-16T11:03:52.040Z,17.07
2019-02-16T11:06:23.940Z,17.15
2019-02-16T11:09:07.943Z,17.60
2019-02-16T11:11:40.757Z,17.73
2019-02-16T11:14:15.942Z,18.10
2019-02-16T11:16:53.754Z,17.73
2019-02-16T11:19:34.807Z,18.02
2019-02-16T11:22:15.585Z,17.30
2019-02-16T11:24:53.444Z,18.00
2019-02-16T11:27:28.651Z,17.12
2019-02-16T11:30:03.866Z,17.57
2019-02-16T11:32:40.020Z,16.32
2019-02-16T11:35:20.882Z,17.27
2019-02-16T11:37:58.546Z,16.65
2019-02-16T11:40:32.803Z,16.52
2019-02-16T11:43:04.665Z,16.30
2019-02-16T11:45:36.563Z,16.05
2019-02-16T11:48:08.432Z,15.53
2019-02-16T11:50:40.549Z,15.35
2019-02-16T11:53:15.249Z,14.38
2019-02-16T11:56:02.260Z,15.23
2019-02-16T11:58:35.166Z,13.25
2019-02-16T12:01:22.245Z,15.00
2019-02-16T12:03:54.099Z,14.87
2019-02-16T12:06:35.307Z,13.88
2019-02-16T12:09:13.894Z,15.20
2019-02-16T12:11:46.758Z,14.15
2019-02-16T12:14:24.589Z,14.40
2019-02-16T12:16:56.452Z,13.88
2019-02-16T12:19:28.335Z,13.00
2019-02-16T12:22:02.963Z,12.73
2019-02-16T12:24:34.372Z,13.58
2019-02-16T12:27:11.317Z,14.07
2019-02-16T12:29:43.119Z,14.43
2019-02-16T12:32:14.980Z,14.38
2019-02-16T12:34:58.915Z,16.67
2019-02-16T12:37:31.229Z,13.38
2019-02-16T12:40:03.249Z,14.07
2019-02-16T12:42:44.314Z,12.80
2019-02-16T12:45:24.051Z,14.13
2019-02-16T12:48:02.015Z,16.10
2019-02-16T12:50:36.336Z,16.32
2019-02-16T12:53:08.095Z,17.37
2019-02-16T12:55:42.744Z,16.32
2019-02-16T12:58:17.150Z,16.77
2019-02-16T13:00:48.939Z,16.65
2019-02-16T13:03:20.751Z,16.93
2019-02-16T13:06:04.591Z,16.77
2019-02-16T13:08:41.750Z,17.23
2019-02-16T13:11:22.417Z,16.80
2019-02-16T13:14:10.429Z,16.32
2019-02-16T13:16:48.411Z,14.98
2019-02-16T13:19:30.672Z,14.53
2019-02-16T13:22:02.577Z,13.13
2019-02-16T13:24:34.457Z,13.70
2019-02-16T13:27:12.262Z,12.90
2019-02-16T13:29:50.342Z,12.78
2019-02-16T13:32:31.277Z,13.18
2019-02-16T13:35:19.364Z,12.98
2019-02-16T13:37:51.238Z,13.30
2019-02-16T13:40:23.107Z,13.22
2019-02-16T13:42:58.012Z,13.18
2019-02-16T13:45:29.808Z,13.68
2019-02-16T13:48:04.578Z,13.93
2019-02-16T13:50:38.672Z,13.13
2019-02-16T13:53:13.147Z,13.13
2019-02-16T13:55:44.667Z,13.67
2019-02-16T13:58:31.580Z,13.23
2019-02-16T14:01:03.239Z,14.13
2019-02-16T14:03:37.778Z,14.67
2019-02-16T14:06:16.477Z,14.83
2019-02-16T14:08:50.848Z,14.77
2019-02-16T14:11:22.731Z,13.83
2019-02-16T14:14:12.685Z,13.85
2019-02-16T14:16:45.456Z,14.38
2019-02-16T14:19:15.638Z,13.48
2019-02-16T14:21:45.878Z,14.18
2019-02-16T14:24:17.823Z,14.07
2019-02-16T14:26:47.730Z,13.55
2019-02-16T14:29:17.847Z,13.83
2019-02-16T14:31:48.060Z,14.63
2019-02-16T14:34:18.270Z,14.03
2019-02-16T14:36:48.602Z,14.15
2019-02-16T14:39:19.027Z,11.50
2019-02-16T14:41:49.360Z,13.10
2019-02-16T14:44:19.618Z,12.90
2019-02-16T14:46:49.798Z,11.85
2019-02-16T14:49:19.932Z,11.00
2019-02-16T14:51:50.142Z,11.30
2019-02-16T14:54:20.492Z,11.10
2019-02-16T14:56:50.972Z,11.10
2019-02-16T14:59:20.771Z,11.55
2019-02-16T15:01:50.954Z,10.68
2019-02-16T15:04:21.020Z,11.10
2019-02-16T15:06:51.223Z,12.40
2019-02-16T15:09:21.576Z,10.20
2019-02-16T15:11:51.817Z,11.35
2019-02-16T15:14:22.044Z,11.25
2019-02-16T15:16:53.429Z,11.93
2019-02-16T15:19:25.602Z,11.38
2019-02-16T15:21:55.375Z,11.40
2019-02-16T15:24:25.583Z,11.60
2019-02-16T15:26:55.736Z,11.48
2019-02-16T15:29:25.875Z,11.00
2019-02-16T15:31:56.071Z,11.40
2019-02-16T15:34:26.247Z,12.07
2019-02-16T15:36:56.461Z,11.30
2019-02-16T15:39:26.613Z,11.90
2019-02-16T15:41:56.971Z,12.50
2019-02-16T15:44:27.208Z,11.10
2019-02-16T15:46:57.645Z,11.57
2019-02-16T15:49:27.928Z,11.53
2019-02-16T15:51:58.165Z,11.57
2019-02-16T15:54:28.490Z,12.18
2019-02-16T15:56:58.885Z,12.05
2019-02-16T15:59:35.067Z,12.07
2019-02-16T16:02:01.377Z,12.10
2019-02-16T16:04:31.664Z,12.53
2019-02-16T16:07:03.330Z,13.38
2019-02-16T16:09:47.283Z,23.87
2019-02-16T16:12:34.213Z,22.77
2019-02-16T16:15:06.715Z,13.43
2019-02-16T16:17:47.911Z,13.50
2019-02-16T16:20:30.410Z,13.70
2019-02-16T16:23:11.210Z,13.22
2019-02-16T16:25:52.226Z,13.10
2019-02-16T16:28:24.088Z,14.30
2019-02-16T16:30:55.926Z,19.82
2019-02-16T16:33:30.840Z,22.67
2019-02-16T16:36:11.548Z,22.87
2019-02-16T16:38:55.503Z,22.30
2019-02-16T16:41:27.264Z,20.75
2019-02-16T16:44:01.826Z,19.92
2019-02-16T16:46:50.215Z,18.45
2019-02-16T16:49:30.868Z,15.53
2019-02-16T16:52:02.766Z,14.30
2019-02-16T16:54:46.563Z,14.50
2019-02-16T16:57:24.153Z,13.68
2019-02-16T17:00:02.273Z,14.23
2019-02-16T17:02:50.587Z,16.30
2019-02-16T17:05:38.407Z,15.23
2019-02-16T17:08:28.603Z,14.43
2019-02-16T17:11:06.496Z,15.78
2019-02-16T17:13:44.367Z,16.48
2019-02-16T17:16:22.083Z,17.80
2019-02-16T17:19:03.346Z,19.12
2019-02-16T17:21:38.543Z,19.02
2019-02-16T17:24:19.688Z,20.80
2019-02-16T17:27:07.992Z,21.25
2019-02-16T17:29:58.203Z,21.73
2019-02-16T17:32:33.168Z,45.05
2019-02-16T17:35:22.339Z,41.50
2019-02-16T17:37:54.202Z,49.38
2019-02-16T17:40:26.134Z,60.73
2019-02-16T17:43:07.357Z,62.45
2019-02-16T17:45:41.894Z,59.90
2019-02-16T17:48:25.920Z,58.20
2019-02-16T17:51:01.766Z,60.78
2019-02-16T17:53:39.917Z,54.77
2019-02-16T17:56:28.382Z,58.73
2019-02-16T17:59:02.908Z,58.98
2019-02-16T18:01:49.920Z,55.70
2019-02-16T18:04:36.644Z,59.70
2019-02-16T18:07:25.301Z,58.08
2019-02-16T18:10:06.519Z,63.95
2019-02-16T18:12:47.175Z,66.12
2019-02-16T18:15:18.689Z,71.50
2019-02-16T18:17:56.207Z,83.82
2019-02-16T18:20:33.789Z,81.28
2019-02-16T18:23:08.650Z,76.42
2019-02-16T18:25:53.960Z,74.00
2019-02-16T18:28:25.809Z,76.15
2019-02-16T18:31:03.769Z,45.88
2019-02-16T18:33:51.982Z,62.10
2019-02-16T18:36:26.371Z,45.55
2019-02-16T18:39:07.093Z,84.95
2019-02-16T18:41:54.462Z,85.97
2019-02-16T18:44:32.124Z,88.85
2019-02-16T18:47:04.130Z,88.33
2019-02-16T18:49:36.145Z,95.35
2019-02-16T18:52:24.499Z,95.70
2019-02-16T18:54:56.313Z,97.17
2019-02-16T18:57:44.992Z,97.17
2019-02-16T19:00:16.948Z,99.77
2019-02-16T19:02:51.972Z,96.82
2019-02-16T19:05:33.603Z,71.92
2019-02-16T19:08:20.887Z,52.23
2019-02-16T19:11:07.980Z,62.33
2019-02-16T19:13:40.003Z,39.90
2019-02-16T19:16:17.724Z,54.65
2019-02-16T19:18:52.392Z,37.15
2019-02-16T19:21:40.939Z,40.60
2019-02-16T19:24:28.832Z,41.08
2019-02-16T19:27:17.553Z,73.33
2019-02-16T19:30:07.811Z,52.53
2019-02-16T19:32:49.666Z,50.10
2019-02-16T19:35:21.560Z,60.23
2019-02-16T19:37:56.129Z,57.93
2019-02-16T19:40:28.422Z,62.13
2019-02-16T19:43:09.208Z,86.47
2019-02-16T19:45:44.045Z,114.20
2019-02-16T19:48:16.846Z,69.22
2019-02-16T19:50:54.839Z,64.12
2019-02-16T19:53:32.476Z,59.93
2019-02-16T19:56:22.891Z,61.90
2019-02-16T19:58:54.830Z,61.50
2019-02-16T20:01:32.643Z,60.80
2019-02-16T20:04:10.476Z,64.40
2019-02-16T20:06:42.385Z,63.20
2019-02-16T20:09:30.945Z,64.00
2019-02-16T20:12:02.823Z,69.07
2019-02-16T20:14:43.776Z,68.62
2019-02-16T20:17:32.105Z,71.67
2019-02-16T20:20:03.981Z,70.50
2019-02-16T20:22:41.647Z,68.12
2019-02-16T20:25:13.943Z,68.20
2019-02-16T20:27:45.842Z,73.07
2019-02-16T20:30:17.713Z,71.40
2019-02-16T20:32:50.654Z,72.37
2019-02-16T20:35:25.546Z,71.33
2019-02-16T20:37:57.367Z,74.62
2019-02-16T20:40:30.918Z,76.17
2019-02-16T20:43:05.838Z,75.00
2019-02-16T20:45:37.592Z,75.12
2019-02-16T20:48:24.673Z,76.55
2019-02-16T20:50:56.605Z,77.85
2019-02-16T20:53:34.705Z,79.00
2019-02-16T20:56:06.682Z,80.72
2019-02-16T20:58:55.164Z,82.57
2019-02-16T21:01:27.002Z,81.05
2019-02-16T21:03:59.060Z,80.72
2019-02-16T21:06:31.358Z,81.63
2019-02-16T21:09:09.212Z,85.50
2019-02-16T21:11:43.948Z,84.62
2019-02-16T21:14:25.171Z,86.08
2019-02-16T21:16:56.960Z,84.60
2019-02-16T21:19:37.754Z,85.95
2019-02-16T21:22:15.774Z,85.95
2019-02-16T21:24:48.044Z,84.15
2019-02-16T21:27:22.612Z,88.07
2019-02-16T21:30:11.002Z,86.40
2019-02-16T21:32:55.291Z,89.10
2019-02-16T21:35:34.176Z,85.20
2019-02-16T21:38:06.048Z,99.52
2019-02-16T21:40:56.236Z,89.50
2019-02-16T21:43:44.368Z,94.17
2019-02-16T21:46:32.206Z,87.57
2019-02-16T21:49:20.210Z,87.42
2019-02-16T21:52:01.022Z,87.82
2019-02-16T21:54:32.893Z,87.57
2019-02-16T21:57:13.629Z,88.37
2019-02-16T21:59:52.613Z,86.53
2019-02-16T22:02:30.644Z,91.42
2019-02-16T22:05:08.157Z,90.35
2019-02-16T22:07:56.298Z,92.37
2019-02-16T22:10:28.165Z,93.95
2019-02-16T22:13:00.126Z,95.45
2019-02-16T22:15:30.532Z,97.53
2019-02-16T22:18:01.160Z,95.55
2019-02-16T22:20:31.486Z,99.85
2019-02-16T22:23:02.756Z,99.22
2019-02-16T22:25:33.039Z,102.15
2019-02-16T22:28:03.285Z,101.27
2019-02-16T22:30:33.513Z,100.58
2019-02-16T22:33:03.810Z,96.60
2019-02-16T22:35:35.019Z,99.03
2019-02-16T22:38:05.435Z,98.05
2019-02-16T22:40:35.707Z,99.28
2019-02-16T22:43:06.040Z,98.15
2019-02-16T22:45:36.371Z,93.87
2019-02-16T22:48:06.797Z,93.65
2019-02-16T22:50:37.098Z,98.92
2019-02-16T22:53:07.234Z,93.22
2019-02-16T22:55:37.485Z,93.60
2019-02-16T22:58:07.717Z,94.58
2019-02-16T23:00:45.144Z,96.63
2019-02-16T23:03:17.371Z,96.15
2019-02-16T23:05:47.883Z,102.92
2019-02-16T23:08:18.093Z,101.67
2019-02-16T23:10:48.644Z,101.85
2019-02-16T23:13:18.896Z,101.45
2019-02-16T23:15:49.142Z,99.22
2019-02-16T23:18:19.861Z,99.37
2019-02-16T23:20:50.145Z,98.58
2019-02-16T23:23:20.573Z,98.97
2019-02-16T23:25:52.418Z,102.45
2019-02-16T23:28:22.802Z,97.02
2019-02-16T23:30:53.150Z,94.62
2019-02-16T23:33:23.545Z,92.42
2019-02-16T23:35:54.758Z,95.80
2019-02-16T23:38:25.067Z,99.13
2019-02-16T23:40:55.335Z,100.00
2019-02-16T23:43:25.635Z,99.72
2019-02-16T23:45:55.857Z,103.47
2019-02-16T23:48:26.138Z,103.85
2019-02-16T23:50:56.375Z,98.52
2019-02-16T23:53:26.625Z,100.80
2019-02-16T23:55:56.867Z,100.42
2019-02-16T23:58:27.803Z,98.80
